Time;durP1;ratioP1;P1;durP2;ratioP2;P2;SDS_P1;SDS_P2;PMS_P1;PMS_P2;Temp;Humidity;BMP_temperature;BMP_pressure;BME280_temperature;BME280_humidity;BME280_pressure;Samples;Min_cycle;Max_cycle;Signal;HPM_P1;HPM_P2
2024/01/05 00:00:51;;;;;;;175.68;6.60;;;;;;;21.18;51.11;98492.72;7299364;19;130610;-40
2024/01/05 00:03:16;;;;;;;187.00;7.13;;;;;;;21.19;50.89;98488.31;7298612;19;130820;-39
2024/01/05 00:05:42;;;;;;;383.85;15.40;;;;;;;21.14;50.14;98487.97;7292675;19;130671;-39
2024/01/05 00:08:07;;;;;;;380.93;14.90;;;;;;;21.16;50.33;98489.44;7293789;19;129262;-43
2024/01/05 00:10:33;;;;;;;170.07;6.63;;;;;;;21.17;50.47;98491.06;7299114;19;130831;-38
2024/01/05 00:12:58;;;;;;;196.30;7.43;;;;;;;21.22;51.20;98490.59;7293965;19;133096;-36
2024/01/05 00:15:23;;;;;;;188.77;7.15;;;;;;;21.16;49.86;98494.66;7296823;19;131867;-39
2024/01/05 00:17:49;;;;;;;296.45;11.55;;;;;;;21.21;50.00;98486.31;7294614;19;129798;-42
2024/01/05 00:20:14;;;;;;;181.23;6.73;;;;;;;21.17;50.52;98479.81;7297579;19;130148;-40
2024/01/05 00:22:40;;;;;;;198.82;7.60;;;;;;;21.19;49.73;98483.88;7296887;19;129414;-40
2024/01/05 00:25:06;;;;;;;248.67;9.43;;;;;;;21.21;50.08;98478.47;7295146;19;129028;-42
2024/01/05 00:27:31;;;;;;;211.13;7.85;;;;;;;21.17;49.64;98470.16;7298011;19;129887;-41
2024/01/05 00:29:57;;;;;;;229.68;8.80;;;;;;;21.07;50.14;98458.25;7294687;19;130252;-40
2024/01/05 00:32:22;;;;;;;155.40;6.03;;;;;;;21.18;50.34;98482.25;7294335;19;130275;-40
2024/01/05 00:34:47;;;;;;;272.15;10.35;;;;;;;21.23;50.41;98490.44;7295650;19;129613;-39
2024/01/05 00:37:13;;;;;;;173.10;6.63;;;;;;;21.18;49.67;98479.66;7297524;19;129540;-42
2024/01/05 00:39:38;;;;;;;197.20;7.38;;;;;;;21.02;50.20;98453.53;7295064;19;130186;-41
2024/01/05 00:42:05;;;;;;;172.25;6.65;;;;;;;21.20;50.75;98469.84;7293852;19;132692;-40
2024/01/05 00:44:30;;;;;;;286.33;10.82;;;;;;;21.17;49.39;98470.16;7294308;19;129237;-38
2024/01/05 00:46:55;;;;;;;222.30;8.55;;;;;;;21.20;49.55;98475.06;7296611;19;130191;-42
2024/01/05 00:49:21;;;;;;;177.10;6.47;;;;;;;21.18;49.63;98482.25;7295573;19;129890;-42
2024/01/05 00:51:46;;;;;;;247.33;9.93;;;;;;;21.20;49.93;98480.31;7292686;19;129806;-40
2024/01/05 00:54:11;;;;;;;272.33;10.05;;;;;;;21.18;50.17;98477.03;7295159;19;129249;-39
2024/01/05 00:56:37;;;;;;;176.80;6.55;;;;;;;21.16;49.53;98467.69;7297016;19;130008;-36
2024/01/05 00:59:02;;;;;;;171.02;6.45;;;;;;;21.13;49.79;98466.25;7295657;19;131515;-38
2024/01/05 01:01:27;;;;;;;188.38;7.05;;;;;;;21.06;49.71;98467.88;7295098;19;130404;-41
2024/01/05 01:03:53;;;;;;;225.90;8.33;;;;;;;21.02;50.80;98465.75;7294255;19;130124;-41
2024/01/05 01:06:18;;;;;;;187.88;7.05;;;;;;;21.01;51.86;98459.72;7294230;19;129799;-38
2024/01/05 01:08:44;;;;;;;195.57;7.35;;;;;;;20.99;51.81;98466.88;7293846;19;129975;-39
2024/01/05 01:11:16;;;;;;;280.60;10.55;;;;;;;20.96;52.27;98467.19;7292183;19;132284;-38
2024/01/05 01:13:42;;;;;;;162.55;5.80;;;;;;;20.95;52.00;98470.78;7293425;19;130048;-38
2024/01/05 01:16:08;;;;;;;235.03;8.97;;;;;;;20.93;52.62;98472.75;7290364;19;129230;-38
2024/01/05 01:18:33;;;;;;;185.23;6.88;;;;;;;20.91;53.10;98481.72;7296556;19;129570;-39
2024/01/05 01:20:58;;;;;;;241.60;8.88;;;;;;;20.92;52.53;98468.50;7295013;19;130318;-37
2024/01/05 01:23:24;;;;;;;201.07;7.43;;;;;;;20.86;52.57;98461.31;7295198;19;129449;-36
2024/01/05 01:25:49;;;;;;;190.30;7.28;;;;;;;21.01;51.63;98470.16;7292995;19;131421;-39
2024/01/05 01:28:14;;;;;;;189.18;7.25;;;;;;;21.04;51.13;98469.03;7297189;19;131695;-38
2024/01/05 01:30:40;;;;;;;244.88;9.13;;;;;;;20.95;50.67;98455.13;7295813;19;130895;-39
2024/01/05 01:33:06;;;;;;;128.63;4.93;;;;;;;21.05;50.63;98471.47;7294062;19;131520;-37
2024/01/05 01:35:31;;;;;;;193.93;7.40;;;;;;;21.12;50.41;98467.22;7294224;19;130209;-36
2024/01/05 01:37:56;;;;;;;218.33;8.33;;;;;;;21.13;50.66;98461.03;7293735;19;129729;-39
2024/01/05 01:40:22;;;;;;;181.77;6.63;;;;;;;21.13;50.23;98468.03;7295168;19;130264;-40
2024/01/05 01:42:49;;;;;;;192.55;7.32;;;;;;;21.14;50.66;98467.88;7294932;19;129860;-39
2024/01/05 01:45:14;;;;;;;183.50;6.75;;;;;;;21.10;50.32;98458.75;7293888;19;129607;-36
2024/01/05 01:47:41;;;;;;;185.80;7.00;;;;;;;21.16;49.86;98457.25;7294111;19;130201;-40
2024/01/05 01:50:07;;;;;;;252.27;9.47;;;;;;;21.15;50.05;98451.22;7294033;19;131276;-41
2024/01/05 01:52:34;;;;;;;;;;;;;;;21.13;51.54;98447.13;7294339;19;129450;-37
2024/01/05 01:54:59;;;;;;;229.95;8.55;;;;;;;21.15;49.53;98456.44;7291474;19;129194;-38
2024/01/05 01:57:25;;;;;;;187.45;7.07;;;;;;;21.16;50.23;98452.84;7294255;19;130350;-40
2024/01/05 01:59:51;;;;;;;266.80;10.37;;;;;;;21.13;49.83;98437.50;7291435;19;129639;-36
2024/01/05 02:02:17;;;;;;;191.65;6.95;;;;;;;21.14;50.10;98431.28;7292688;19;129541;-38
2024/01/05 02:04:43;;;;;;;206.02;7.80;;;;;;;21.18;50.04;98423.94;7293028;19;130851;-39
2024/01/05 02:07:08;;;;;;;202.55;7.65;;;;;;;20.99;49.75;98408.59;7292007;19;130884;-38
2024/01/05 02:09:35;;;;;;;252.88;9.45;;;;;;;21.17;49.98;98433.56;7290847;19;132020;-38
2024/01/05 02:12:00;;;;;;;201.88;7.88;;;;;;;21.12;49.27;98435.84;7290080;19;129372;-39
2024/01/05 02:14:26;;;;;;;213.40;7.90;;;;;;;21.05;50.34;98428.84;7292323;19;129094;-38
2024/01/05 02:16:51;;;;;;;250.50;9.23;;;;;;;21.01;50.51;98428.34;7293067;19;130540;-38
2024/01/05 02:19:16;;;;;;;192.63;7.13;;;;;;;20.99;51.04;98429.50;7293139;19;131122;-39
2024/01/05 02:21:49;;;;;;;242.70;9.18;;;;;;;20.97;51.54;98421.84;7290075;19;129741;-39
2024/01/05 02:24:14;;;;;;;246.38;9.38;;;;;;;20.97;51.35;98414.00;7286303;19;131288;-37
2024/01/05 02:26:39;;;;;;;203.95;7.53;;;;;;;20.98;51.98;98417.41;7291950;19;131693;-41
2024/01/05 02:29:05;;;;;;;263.98;9.80;;;;;;;20.84;51.78;98400.56;7286663;19;131250;-38
2024/01/05 02:31:30;;;;;;;195.73;7.50;;;;;;;20.98;51.88;98420.84;7292357;19;132157;-39
2024/01/05 02:33:56;;;;;;;221.18;8.48;;;;;;;20.96;52.11;98424.59;7287768;19;130327;-39
2024/01/05 02:36:21;;;;;;;207.70;7.97;;;;;;;20.97;52.64;98416.63;7287775;19;130043;-39
2024/01/05 02:38:46;;;;;;;212.15;7.90;;;;;;;20.98;51.43;98417.41;7291741;19;130587;-40
2024/01/05 02:41:12;;;;;;;204.67;7.77;;;;;;;21.07;50.81;98422.50;7292021;19;129438;-36
2024/01/05 02:43:37;;;;;;;202.98;7.78;;;;;;;20.99;51.05;98404.19;7291481;19;131886;-38
2024/01/05 02:46:02;;;;;;;256.67;9.50;;;;;;;21.13;50.47;98429.66;7289499;19;130974;-39
2024/01/05 02:48:28;;;;;;;188.25;7.13;;;;;;;21.13;50.75;98431.44;7292401;19;129661;-38
2024/01/05 02:50:53;;;;;;;196.07;7.10;;;;;;;21.11;50.53;98426.38;7291895;19;129225;-37
2024/01/05 02:53:18;;;;;;;182.80;7.00;;;;;;;21.15;50.71;98419.88;7289445;19;129318;-38
2024/01/05 02:55:44;;;;;;;239.75;8.75;;;;;;;21.02;49.73;98393.41;7289532;19;130118;-37
2024/01/05 02:58:09;;;;;;;182.68;6.95;;;;;;;21.12;49.75;98407.09;7292517;19;131449;-39
2024/01/05 03:00:35;;;;;;;202.07;7.60;;;;;;;21.11;50.18;98402.88;7291778;19;129741;-39
2024/01/05 03:03:01;;;;;;;177.80;6.68;;;;;;;21.14;49.68;98402.53;7289799;19;129520;-38
2024/01/05 03:05:26;;;;;;;216.53;7.73;;;;;;;21.15;50.94;98393.72;7292227;19;130101;-38
2024/01/05 03:07:52;;;;;;;185.45;6.82;;;;;;;20.96;49.77;98373.13;7295860;19;130943;-38
2024/01/05 03:10:17;;;;;;;222.48;8.35;;;;;;;21.14;50.51;98399.13;7292616;19;131446;-37
2024/01/05 03:12:43;;;;;;;194.00;7.70;;;;;;;21.16;50.54;98405.81;7296879;19;130195;-37
2024/01/05 03:15:08;;;;;;;230.50;9.03;;;;;;;21.16;50.36;98403.19;7295931;19;129377;-36
2024/01/05 03:17:34;;;;;;;226.98;8.70;;;;;;;21.16;50.50;98403.19;7299139;19;131657;-39
2024/01/05 03:19:59;;;;;;;249.27;9.47;;;;;;;21.14;49.88;98391.28;7297135;19;130297;-38
2024/01/05 03:22:24;;;;;;;196.90;7.30;;;;;;;21.15;50.29;98395.50;7298564;19;130011;-39
2024/01/05 03:24:50;;;;;;;146.07;5.38;;;;;;;21.14;49.82;98394.69;7299204;19;130109;-38
2024/01/05 03:27:15;;;;;;;198.85;7.63;;;;;;;21.14;49.43;98396.50;7294637;19;129147;-38
2024/01/05 03:29:41;;;;;;;175.45;6.40;;;;;;;21.04;49.85;98380.97;7297315;19;130336;-38
2024/01/05 03:32:07;;;;;;;342.57;13.50;;;;;;;20.96;50.36;98378.34;7295154;19;131002;-38
2024/01/05 03:34:33;;;;;;;175.55;6.53;;;;;;;20.97;50.48;98374.81;7298753;19;130175;-38
2024/01/05 03:36:58;;;;;;;172.50;6.72;;;;;;;20.86;50.92;98356.00;7296982;19;133784;-36
2024/01/05 03:39:25;;;;;;;202.40;7.68;;;;;;;20.94;51.09;98369.06;7299293;19;132759;-38
2024/01/05 03:41:50;;;;;;;287.73;11.40;;;;;;;20.94;51.41;98369.84;7296900;19;129513;-38
2024/01/05 03:44:20;;;;;;;119.88;4.50;;;;;;;20.83;51.77;98351.91;7298028;19;130480;-38
2024/01/05 03:46:48;;;;;;;194.90;7.18;;;;;;;20.94;51.67;98345.53;7297782;19;132555;-38
2024/01/05 03:49:14;;;;;;;131.13;5.05;;;;;;;20.92;51.41;98352.72;7298371;19;129560;-39
2024/01/05 03:51:39;;;;;;;328.40;12.10;;;;;;;20.91;52.15;98341.44;7293774;19;129751;-38
2024/01/05 03:54:04;;;;;;;224.60;8.98;;;;;;;20.95;51.31;98340.16;7293707;19;131628;-39
2024/01/05 03:56:40;;;;;;;184.68;6.82;;;;;;;21.05;51.65;98326.94;7293040;19;130237;-39
2024/01/05 03:59:06;;;;;;;265.00;10.40;;;;;;;21.03;50.49;98321.88;7297793;19;131894;-36
2024/01/05 04:01:33;;;;;;;259.17;9.75;;;;;;;21.06;50.49;98316.31;7297525;19;129202;-38
2024/01/05 04:03:59;;;;;;;227.93;8.88;;;;;;;21.09;50.62;98320.41;7297431;19;130216;-37
2024/01/05 04:06:24;;;;;;;189.00;7.30;;;;;;;21.08;50.48;98318.75;7293147;19;130488;-38
2024/01/05 04:08:51;;;;;;;172.15;6.43;;;;;;;21.13;50.91;98314.66;7296755;19;130156;-38
2024/01/05 04:11:20;;;;;;;;;;;;;;;21.07;51.24;98307.50;7297963;19;130233;-38
2024/01/05 04:13:46;;;;;;;173.40;6.63;;;;;;;21.13;50.59;98306.00;7294480;19;129975;-38
2024/01/05 04:16:12;;;;;;;194.32;7.20;;;;;;;21.07;49.63;98297.06;7292855;19;130754;-38
2024/01/05 04:18:37;;;;;;;108.23;4.13;;;;;;;20.92;49.93;98271.75;7295146;19;129360;-38
2024/01/05 04:21:03;;;;;;;275.80;10.57;;;;;;;21.07;49.75;98298.84;7296757;19;129081;-38
2024/01/05 04:23:28;;;;;;;205.93;7.63;;;;;;;21.10;50.50;98283.66;7297578;19;130021;-39
2024/01/05 04:25:53;;;;;;;162.55;6.10;;;;;;;21.10;50.68;98291.50;7294031;19;130148;-37
2024/01/05 04:28:20;;;;;;;146.32;5.43;;;;;;;21.11;50.34;98282.66;7296400;19;129268;-38
2024/01/05 04:30:46;;;;;;;;;;;;;;;21.09;51.94;98276.78;7298083;19;130344;-38
2024/01/05 04:33:11;;;;;;;193.45;7.43;;;;;;;21.09;49.61;98271.53;7294302;19;130341;-38
2024/01/05 04:35:37;;;;;;;139.10;5.27;;;;;;;20.98;50.22;98251.00;7295768;19;130957;-38
2024/01/05 04:38:03;;;;;;;217.90;8.38;;;;;;;21.08;49.81;98272.53;7293492;19;129854;-38
2024/01/05 04:40:29;;;;;;;114.40;4.23;;;;;;;21.07;50.13;98270.94;7298292;19;131584;-38
2024/01/05 04:42:54;;;;;;;167.60;6.53;;;;;;;20.99;49.80;98270.91;7293446;19;130173;-39
2024/01/05 04:45:20;;;;;;;306.10;11.68;;;;;;;20.88;51.56;98263.41;7287061;19;130561;-39
2024/01/05 04:47:46;;;;;;;269.73;10.10;;;;;;;20.82;52.03;98258.88;7293894;19;129892;-39
2024/01/05 04:50:12;;;;;;;374.67;14.55;;;;;;;20.91;51.73;98257.06;7282965;19;130781;-40
2024/01/05 04:52:37;;;;;;;206.55;7.65;;;;;;;20.96;50.95;98247.72;7290487;19;131654;-38
2024/01/05 04:55:04;;;;;;;201.70;7.68;;;;;;;20.85;51.03;98231.59;7287029;19;130654;-38
2024/01/05 04:57:30;;;;;;;118.28;4.35;;;;;;;20.98;50.85;98237.94;7295246;19;129366;-38
2024/01/05 04:59:55;;;;;;;223.52;8.57;;;;;;;21.17;50.58;98260.28;7291939;19;131078;-38
2024/01/05 05:02:21;;;;;;;216.57;8.30;;;;;;;21.25;50.43;98258.44;7289889;19;130208;-38
2024/01/05 05:04:46;;;;;;;230.80;8.52;;;;;;;21.32;51.04;98238.47;7291586;19;130285;-38
2024/01/05 05:07:11;;;;;;;249.07;9.65;;;;;;;21.06;50.88;98232.69;7292408;19;130170;-38
2024/01/05 05:09:37;;;;;;;198.38;7.47;;;;;;;20.95;51.58;98229.59;7293426;19;130045;-37
2024/01/05 05:12:03;;;;;;;144.65;5.43;;;;;;;20.87;51.43;98230.47;7289604;19;130383;-38
2024/01/05 05:14:28;;;;;;;234.57;8.63;;;;;;;20.82;51.58;98224.91;7294168;19;130867;-37
2024/01/05 05:16:54;;;;;;;252.75;9.38;;;;;;;20.77;51.75;98240.28;7294676;19;129576;-37
2024/01/05 05:19:19;;;;;;;236.02;9.20;;;;;;;20.72;51.92;98239.97;7293929;19;130166;-38
2024/01/05 05:21:45;;;;;;;238.73;9.23;;;;;;;20.74;51.95;98251.84;7293790;19;131134;-37
2024/01/05 05:24:11;;;;;;;245.75;8.95;;;;;;;20.88;51.63;98263.41;7294347;19;130401;-38
2024/01/05 05:26:36;;;;;;;181.73;7.00;;;;;;;20.98;51.25;98269.31;7292679;19;129143;-36
2024/01/05 05:29:02;;;;;;;200.60;7.68;;;;;;;21.00;51.77;98272.56;7293435;19;130097;-38
2024/01/05 05:31:27;;;;;;;252.10;9.50;;;;;;;21.01;51.24;98276.81;7295479;19;129902;-38
2024/01/05 05:33:53;;;;;;;228.75;8.60;;;;;;;21.08;51.40;98275.16;7291829;19;130791;-38
2024/01/05 05:36:18;;;;;;;206.70;7.97;;;;;;;21.07;51.14;98278.75;7292175;19;128997;-38
2024/01/05 05:38:43;;;;;;;175.13;6.57;;;;;;;21.02;52.13;98269.78;7292274;19;130651;-38
2024/01/05 05:41:09;;;;;;;271.80;10.38;;;;;;;21.09;51.52;98274.16;7292102;19;131543;-38
2024/01/05 05:43:36;;;;;;;272.90;10.52;;;;;;;21.07;52.03;98283.16;7293320;19;130853;-39
2024/01/05 05:46:01;;;;;;;;;;;;;;;20.95;52.66;98287.91;7283981;19;131857;-39
2024/01/05 05:48:26;;;;;;;199.23;7.20;;;;;;;20.83;52.20;98297.06;7292806;19;133324;-37
2024/01/05 05:50:52;;;;;;;257.10;9.60;;;;;;;20.82;52.10;98298.06;7291591;19;130285;-37
2024/01/05 05:53:17;;;;;;;220.70;8.38;;;;;;;20.81;52.25;98296.41;7292410;19;129716;-37
2024/01/05 05:55:42;;;;;;;201.73;7.60;;;;;;;20.82;51.79;98298.06;7291881;19;129058;-38
2024/01/05 05:58:08;;;;;;;236.75;9.05;;;;;;;20.84;51.52;98301.28;7292818;19;129042;-37
2024/01/05 06:00:35;;;;;;;193.70;7.47;;;;;;;20.91;50.72;98291.81;7293754;19;131239;-36
2024/01/05 06:03:00;;;;;;;141.35;5.32;;;;;;;20.95;50.21;98287.06;7294329;19;131230;-37
2024/01/05 06:05:26;;;;;;;166.32;6.03;;;;;;;20.80;50.76;98266.06;7291611;19;129359;-39
2024/01/05 06:07:51;;;;;;;208.27;7.43;;;;;;;21.02;50.03;98278.44;7291431;19;129719;-38
2024/01/05 06:10:17;;;;;;;212.60;8.18;;;;;;;21.06;50.64;98274.50;7293594;19;130268;-38
2024/01/05 06:12:42;;;;;;;190.80;6.90;;;;;;;21.06;49.90;98282.34;7292843;19;130799;-38
2024/01/05 06:15:08;;;;;;;263.05;9.88;;;;;;;21.08;50.39;98283.00;7290007;19;130883;-38
2024/01/05 06:17:33;;;;;;;254.50;9.50;;;;;;;20.93;51.03;98273.38;7292737;19;129134;-38
2024/01/05 06:19:58;;;;;;;211.65;7.88;;;;;;;20.65;52.39;98241.59;7290479;19;130172;-38
2024/01/05 06:22:24;;;;;;;234.97;9.10;;;;;;;20.75;52.17;98257.91;7290041;19;133377;-38
2024/01/05 06:24:49;;;;;;;205.70;7.63;;;;;;;20.71;52.11;98260.03;7291567;19;129403;-37
2024/01/05 06:27:14;;;;;;;232.48;8.63;;;;;;;20.70;52.92;98257.59;7291984;19;129277;-38
2024/01/05 06:29:40;;;;;;;169.05;6.32;;;;;;;20.69;52.49;98266.41;7292464;19;129566;-39
2024/01/05 06:32:05;;;;;;;159.80;6.10;;;;;;;20.64;53.14;98268.72;7290893;19;130328;-38
2024/01/05 06:34:31;;;;;;;201.90;7.55;;;;;;;20.60;53.57;98267.38;7292138;19;130107;-38
2024/01/05 06:36:56;;;;;;;225.37;8.57;;;;;;;20.66;53.02;98269.34;7293424;19;129303;-38
2024/01/05 06:39:22;;;;;;;147.30;5.43;;;;;;;20.62;53.62;98265.44;7292051;19;130130;-38
2024/01/05 06:41:47;;;;;;;213.73;8.15;;;;;;;20.75;52.08;98270.97;7290453;19;131569;-38
2024/01/05 06:44:13;;;;;;;223.05;8.50;;;;;;;20.83;51.34;98273.56;7290934;19;129159;-39
2024/01/05 06:46:38;;;;;;;248.25;9.35;;;;;;;20.88;51.64;98265.22;7288240;19;131150;-39
2024/01/05 06:49:04;;;;;;;192.87;7.33;;;;;;;20.77;51.46;98248.13;7292956;19;130545;-39
2024/01/05 06:51:39;;;;;;;179.45;6.70;;;;;;;20.75;51.46;98247.47;7291091;19;133074;-39
2024/01/05 06:54:05;;;;;;;230.30;8.57;;;;;;;20.97;50.48;98264.22;7289234;19;132444;-39
2024/01/05 06:56:34;;;;;;;246.90;9.48;;;;;;;20.87;50.76;98240.91;7289463;19;129065;-38
2024/01/05 06:59:04;;;;;;;173.93;6.55;;;;;;;20.97;50.83;98265.06;7292986;19;130224;-39
2024/01/05 07:01:31;;;;;;;212.30;7.88;;;;;;;20.93;50.38;98248.06;7292169;19;130472;-39
2024/01/05 07:03:57;;;;;;;237.07;8.80;;;;;;;21.03;49.93;98256.56;7290536;19;129204;-36
2024/01/05 07:06:22;;;;;;;182.33;6.83;;;;;;;20.86;50.14;98231.41;7289516;19;130783;-38
2024/01/05 07:08:48;;;;;;;139.32;5.35;;;;;;;21.00;50.70;98253.47;7291708;19;130364;-37
2024/01/05 07:11:23;;;;;;;169.50;6.43;;;;;;;20.98;51.13;98245.78;7291217;19;130556;-39
2024/01/05 07:13:49;;;;;;;193.25;7.60;;;;;;;20.98;50.37;98250.19;7289014;19;129161;-39
2024/01/05 07:16:16;;;;;;;237.38;8.77;;;;;;;21.00;50.38;98254.28;7284940;19;129747;-38
2024/01/05 07:18:41;;;;;;;191.30;7.30;;;;;;;21.06;49.97;98248.38;7292689;19;130362;-37
2024/01/05 07:21:07;;;;;;;229.25;8.60;;;;;;;21.04;49.91;98250.34;7290887;19;129768;-39
2024/01/05 07:23:32;;;;;;;168.32;6.38;;;;;;;21.01;50.77;98250.69;7290700;19;130566;-38
2024/01/05 07:26:00;;;;;;;237.68;9.07;;;;;;;21.02;50.34;98247.09;7290001;19;131062;-38
2024/01/05 07:28:25;;;;;;;235.70;9.23;;;;;;;20.90;50.54;98229.28;7290114;19;130184;-37
2024/01/05 07:30:50;;;;;;;158.27;6.07;;;;;;;21.07;50.37;98255.25;7290557;19;130302;-37
2024/01/05 07:33:16;;;;;;;201.15;7.43;;;;;;;20.97;50.52;98259.84;7288533;19;129248;-37
2024/01/05 07:35:42;;;;;;;217.93;8.07;;;;;;;20.97;51.33;98259.00;7289892;19;129983;-40
2024/01/05 07:38:08;;;;;;;239.23;9.18;;;;;;;20.92;51.93;98256.91;7291494;19;130538;-39
2024/01/05 07:40:34;;;;;;;129.93;4.87;;;;;;;20.87;52.23;98264.41;7290032;19;132281;-37
2024/01/05 07:42:59;;;;;;;239.63;9.05;;;;;;;20.86;52.43;98254.94;7290477;19;131317;-39
2024/01/05 07:45:25;;;;;;;260.88;9.52;;;;;;;20.72;53.09;98237.34;7288465;19;129877;-39
2024/01/05 07:47:50;;;;;;;208.90;7.85;;;;;;;20.81;52.90;98254.63;7290120;19;130309;-40
2024/01/05 07:50:16;;;;;;;190.02;7.30;;;;;;;20.77;52.92;98243.69;7289377;19;130271;-36
2024/01/05 07:52:42;;;;;;;154.00;5.67;;;;;;;20.79;53.17;98246.16;7292559;19;129587;-38
2024/01/05 07:55:09;;;;;;;245.68;9.25;;;;;;;20.82;52.37;98232.75;7298232;19;131115;-39
2024/01/05 07:57:35;;;;;;;;;;;;;;;20.83;52.81;98242.22;7297009;19;132080;-38
2024/01/05 08:00:00;;;;;;;180.00;6.72;;;;;;;20.91;51.41;98250.03;7298255;19;133849;-38
2024/01/05 08:02:25;;;;;;;301.60;11.45;;;;;;;20.88;51.38;98239.91;7296546;19;130996;-37
2024/01/05 08:04:52;;;;;;;219.43;8.03;;;;;;;20.93;50.54;98240.22;7293771;19;130854;-39
2024/01/05 08:07:17;;;;;;;239.30;9.00;;;;;;;20.94;51.04;98241.03;7296553;19;130929;-38
2024/01/05 08:09:43;;;;;;;189.75;6.80;;;;;;;20.97;50.76;98232.88;7297939;19;130579;-39
2024/01/05 08:12:09;;;;;;;272.52;10.45;;;;;;;20.94;50.32;98231.38;7296542;19;129179;-40
2024/01/05 08:14:34;;;;;;;170.57;6.33;;;;;;;20.98;50.46;98224.88;7298348;19;132994;-38
2024/01/05 08:17:00;;;;;;;170.63;6.38;;;;;;;20.98;50.95;98230.13;7296122;19;130148;-39
2024/01/05 08:19:25;;;;;;;133.77;5.22;;;;;;;20.95;50.35;98211.31;7296100;19;130647;-38
2024/01/05 08:21:51;;;;;;;277.05;10.85;;;;;;;20.98;50.90;98219.66;7296670;19;130265;-37
2024/01/05 08:24:16;;;;;;;198.30;7.50;;;;;;;20.99;50.39;98218.66;7295036;19;129220;-39
2024/01/05 08:26:43;;;;;;;189.05;7.40;;;;;;;20.98;50.78;98211.81;7296390;19;131783;-38
2024/01/05 08:29:09;;;;;;;200.75;7.60;;;;;;;20.95;50.72;98213.94;7295369;19;131047;-37
2024/01/05 08:31:34;;;;;;;270.75;10.30;;;;;;;21.01;50.75;98219.31;7291761;19;130673;-38
2024/01/05 08:34:00;;;;;;;209.13;8.02;;;;;;;20.97;50.48;98212.81;7295659;19;129697;-38
2024/01/05 08:36:27;;;;;;;213.70;8.50;;;;;;;21.00;50.11;98212.47;7290904;19;131095;-39
2024/01/05 08:38:53;;;;;;;163.13;6.07;;;;;;;20.99;50.50;98220.50;7296828;19;130583;-38
2024/01/05 08:41:18;;;;;;;272.17;10.70;;;;;;;20.96;50.63;98211.13;7296599;19;129525;-38
2024/01/05 08:43:44;;;;;;;214.27;8.27;;;;;;;21.00;50.42;98202.03;7295687;19;131027;-38
2024/01/05 08:46:10;;;;;;;231.90;8.85;;;;;;;20.99;49.97;98204.81;7292921;19;130209;-38
2024/01/05 08:48:37;;;;;;;265.88;10.18;;;;;;;20.95;51.26;98198.25;7295241;19;130323;-39
2024/01/05 08:51:03;;;;;;;221.38;8.35;;;;;;;20.91;52.16;98199.59;7296374;19;129292;-36
2024/01/05 08:53:28;;;;;;;115.53;4.50;;;;;;;20.88;52.24;98203.34;7295307;19;129096;-38
2024/01/05 08:55:53;;;;;;;187.15;7.07;;;;;;;20.83;52.65;98200.41;7294178;19;130079;-36
2024/01/05 08:58:19;;;;;;;237.77;8.87;;;;;;;20.83;52.90;98197.81;7294800;19;130433;-39
2024/01/05 09:00:44;;;;;;;185.37;7.27;;;;;;;20.77;52.93;98206.31;7296505;19;129927;-38
2024/01/05 09:03:09;;;;;;;193.32;7.32;;;;;;;20.78;52.93;98202.72;7295792;19;132550;-39
2024/01/05 09:05:34;;;;;;;202.18;7.75;;;;;;;20.73;53.34;98197.19;7293127;19;130053;-37
2024/01/05 09:08:00;;;;;;;136.88;5.05;;;;;;;20.71;53.00;98196.53;7295847;19;131188;-39
2024/01/05 09:10:26;;;;;;;242.63;9.13;;;;;;;20.61;52.73;98175.84;7293013;19;129114;-38
2024/01/05 09:12:51;;;;;;;213.18;8.15;;;;;;;20.81;51.81;98194.53;7293962;19;130891;-38
2024/01/05 09:15:17;;;;;;;194.45;7.25;;;;;;;20.72;51.65;98167.63;7293051;19;129150;-38
2024/01/05 09:17:43;;;;;;;145.13;5.32;;;;;;;20.88;51.11;98195.50;7296083;19;130402;-38
2024/01/05 09:20:08;;;;;;;169.27;6.35;;;;;;;20.87;51.41;98186.06;7294849;19;129075;-38
2024/01/05 09:22:34;;;;;;;232.20;8.77;;;;;;;20.85;50.82;98185.41;7294534;19;129389;-40
2024/01/05 09:24:59;;;;;;;207.77;7.80;;;;;;;20.87;50.75;98193.06;7292910;19;130308;-38
2024/01/05 09:27:25;;;;;;;231.27;8.50;;;;;;;20.89;50.87;98193.72;7295069;19;129263;-37
2024/01/05 09:29:50;;;;;;;196.18;7.47;;;;;;;20.92;51.00;98193.38;7295411;19;129782;-38
2024/01/05 09:32:16;;;;;;;133.32;5.03;;;;;;;20.93;50.57;98187.97;7291875;19;129581;-39
2024/01/05 09:34:42;;;;;;;246.65;9.15;;;;;;;20.92;51.34;98188.16;7294107;19;129077;-39
2024/01/05 09:37:08;;;;;;;180.45;6.53;;;;;;;20.93;50.16;98187.97;7296272;19;130369;-38
2024/01/05 09:39:34;;;;;;;154.20;6.03;;;;;;;20.97;50.59;98181.47;7295258;19;131393;-39
2024/01/05 09:41:59;;;;;;;244.45;10.20;;;;;;;20.99;50.09;98187.31;7295164;19;130946;-38
2024/01/05 09:44:26;;;;;;;241.13;9.15;;;;;;;20.99;50.61;98176.88;7291768;19;130137;-38
2024/01/05 09:46:53;;;;;;;168.40;6.10;;;;;;;20.99;50.28;98189.13;7295481;19;130978;-38
2024/01/05 09:49:20;;;;;;;189.23;7.15;;;;;;;20.98;49.96;98188.31;7295222;19;129985;-39
2024/01/05 09:51:46;;;;;;;114.65;4.45;;;;;;;21.04;50.56;98187.63;7294009;19;131241;-38
2024/01/05 09:54:12;;;;;;;260.88;10.02;;;;;;;20.83;50.35;98166.47;7290786;19;130855;-38
2024/01/05 09:56:39;;;;;;;212.60;8.00;;;;;;;20.87;50.56;98180.81;7291216;19;129891;-38
2024/01/05 09:59:06;;;;;;;109.65;4.32;;;;;;;20.89;51.53;98184.06;7294110;19;129921;-39
2024/01/05 10:01:35;;;;;;;234.70;8.93;;;;;;;20.85;52.43;98189.78;7293066;19;131266;-38
2024/01/05 10:04:01;;;;;;;174.65;6.10;;;;;;;20.76;52.38;98189.00;7294636;19;130849;-38
2024/01/05 10:06:28;;;;;;;184.23;7.10;;;;;;;20.70;52.59;98184.47;7290800;19;130414;-36
2024/01/05 10:08:59;;;;;;;181.05;6.85;;;;;;;20.69;53.02;98185.47;7294084;19;129332;-37
2024/01/05 10:11:31;;;;;;;198.75;7.65;;;;;;;20.63;52.66;98186.94;7293098;19;130028;-39
2024/01/05 10:14:01;;;;;;;227.00;8.70;;;;;;;20.61;52.99;98180.22;7292186;19;129024;-38
2024/01/05 10:16:34;;;;;;;282.67;10.73;;;;;;;20.62;53.38;98187.09;7287729;19;130440;-38
2024/01/05 10:19:26;;;;;;;226.55;8.52;;;;;;;20.59;53.84;98184.84;7293847;19;130851;-38
2024/01/05 10:21:51;;;;;;;239.48;9.40;;;;;;;20.53;51.79;98161.97;7292154;19;129420;-39
2024/01/05 10:24:29;;;;;;;172.02;6.55;;;;;;;20.70;52.64;98187.06;7292984;19;130205;-37
2024/01/05 10:27:06;;;;;;;178.60;6.88;;;;;;;20.77;52.82;98182.00;7292583;19;130423;-39
2024/01/05 10:29:33;;;;;;;168.20;6.53;;;;;;;20.79;50.98;98173.03;7291235;19;129644;-37
2024/01/05 10:32:18;;;;;;;315.50;12.25;;;;;;;20.81;52.64;98178.06;7291805;19;129159;-39
2024/01/05 10:34:47;;;;;;;284.85;11.02;;;;;;;20.84;50.51;98170.69;7285030;19;130192;-38
2024/01/05 10:37:14;;;;;;;364.13;14.30;;;;;;;20.89;50.93;98160.53;7286218;19;131246;-36
2024/01/05 10:39:46;;;;;;;;;;;;;;;20.88;52.23;98153.69;7290249;19;131632;-36
2024/01/05 10:42:14;;;;;;;183.65;7.10;;;;;;;20.73;50.40;98121.44;7288443;19;129175;-38
2024/01/05 10:44:42;;;;;;;282.80;10.70;;;;;;;20.92;51.16;98147.16;7284018;19;132265;-36
2024/01/05 10:47:08;;;;;;;218.77;8.18;;;;;;;20.87;50.65;98149.47;7290824;19;132000;-38
2024/01/05 10:49:34;;;;;;;221.52;8.43;;;;;;;20.90;50.64;98151.75;7290965;19;130399;-38
2024/01/05 10:52:00;;;;;;;167.75;6.38;;;;;;;20.90;50.54;98148.31;7289521;19;129798;-38
2024/01/05 10:54:26;;;;;;;;;;;;;;;20.90;51.97;98149.13;7291318;19;130959;-38
2024/01/05 10:56:55;;;;;;;170.05;6.30;;;;;;;20.95;50.30;98148.63;7291275;19;131124;-39
2024/01/05 10:59:21;;;;;;;166.13;6.20;;;;;;;20.95;50.68;98139.00;7291434;19;129781;-39
2024/01/05 11:01:48;;;;;;;235.18;9.07;;;;;;;20.89;51.31;98133.63;7289785;19;129357;-39
2024/01/05 11:04:16;;;;;;;256.17;9.88;;;;;;;20.84;51.80;98126.28;7290612;19;130766;-38